Launchpad.net

KDE Bug Tracking System

Summary

KDE's bug tracking system which files details of wishes, bugs and crashes reported by users and developers.

Bug watches

175 of 8727 results
Launchpad bug Remote bug Status Last check Next check
#2039765: crash in file_unix isOnCifs if checked against btrfs(when overwriting files in btrfs on Dolphin) 474451 RESOLVED FIXED 2023-12-10 19:11:33 UTC
#1883357: Can't create new user in Kubuntu 20.04 346691 CONFIRMED 2023-12-10 03:34:49 UTC
#2036333: signon-ui no longer works for Google authentication 420280 CLOSED DOWNSTREAM 2023-12-10 00:39:06 UTC
#2017736: System Setting Crash when Multi-Monitor Docking Station plugged in 472642 RESOLVED DUPLICATE 2023-12-10 19:11:33 UTC
#1996420: samba package failed to install 472145 RESOLVED FIXED 2023-12-10 16:49:28 UTC
#2025060: kamoso crashes when switching camera 471467 UNCONFIRMED 2023-12-10 16:49:28 UTC
#2019953: plasma-discover crashes on exit 457278 RESOLVED FIXED 2023-12-10 23:25:35 UTC
#335761: Placement policy 'Remember' by default for all windows 470318 RESOLVED DUPLICATE 2023-12-10 03:35:02 UTC
#2013235: Drag and Drop not working in Qt-Applications on Gnome 44 469961 CLOSED DOWNSTREAM 2023-12-10 11:53:47 UTC
#2013235: Drag and Drop not working in Qt-Applications on Gnome 44 469029 RESOLVED DUPLICATE 2023-12-10 19:11:33 UTC
#508843: ubuntu shouldn't package beta version of digikam; needs upgrading to fix >200 bugs, and in particular import crashes #8 most reported KDE bug ever. 210462 RESOLVED FIXED 2023-12-10 00:38:35 UTC
#2018671: KDE/Kwin on Kubuntu 22.04 periodically locks up 457847 RESOLVED UPSTREAM 2023-12-10 17:57:44 UTC
#2018353: GPU-related stats fail to work with NVIDIA 530 driver 462512 RESOLVED FIXED 2023-12-10 17:57:46 UTC
#2017736: System Setting Crash when Multi-Monitor Docking Station plugged in 466730 RESOLVED DUPLICATE 2023-12-10 11:53:46 UTC
#2015216: Invalid read of size 8 in strncmp() from is_dst() 434764 RESOLVED FIXED 2023-12-10 10:37:31 UTC
#2011806: [lunar] Snaps don't launch due to cgroup issue 423756 UNCONFIRMED 2023-12-10 03:34:59 UTC
#2008968: discover home never loads 466765 RESOLVED FIXED 2023-12-10 10:37:35 UTC
#1980189: VPN with SSTP not possible: 'Necessary secrets for the VPN connection were not provided.' 360176 RESOLVED WONTFIX 2023-12-10 23:25:24 UTC
#2008059: No KScreen backend found 466064 RESOLVED DOWNSTREAM 2023-12-10 23:25:37 UTC
#2000718: digikam crashes with illegal instruction on AMD Athlon II 465548 RESOLVED FIXED 2023-12-10 10:37:35 UTC
#2003339: kwin_x11: The X11 connection broke: I/O error (code 1) 461318 RESOLVED DUPLICATE 2023-12-10 11:53:46 UTC
#2003339: kwin_x11: The X11 connection broke: I/O error (code 1) 461052 RESOLVED WORKSFORME 2023-12-10 11:53:46 UTC
#2003339: kwin_x11: The X11 connection broke: I/O error (code 1) 461316 RESOLVED FIXED 2023-12-10 17:57:46 UTC
#1987667: Possible SIGSEGV in KIdleTime 464223 UNCONFIRMED 2023-12-10 03:35:02 UTC
#1998144: Missing Support for GPG encrpytion 462369 RESOLVED DOWNSTREAM 2023-12-10 23:25:37 UTC
#1881963: extension: kde-neon fails on arm64 449001 RESOLVED FIXED 2023-12-10 16:49:24 UTC
#1993788: Since upgrade to 22.10 KRDC no longer support full-screen mode 460089 UNCONFIRMED 2023-12-10 00:39:11 UTC
#329337: Okular starts in full-screen mode, without toolbar if last used maximized 457018 CONFIRMED 2023-12-10 10:37:33 UTC
#1995191: Night Color Not Working Correctly 428357 RESOLVED WONTFIX 2023-12-10 00:39:07 UTC
#1995274: Backport Clang 14 fix 452758 RESOLVED FIXED 2023-12-10 03:35:00 UTC
#1993464: Ctrl+Alt+T no longer pulls up a Konsole window in Ubuntu Studio Kinetic 456958 CONFIRMED 2023-12-10 04:38:42 UTC
#1990783: [radeon] Distorted mouse pointer under Wayland in Kubuntu 22.10 456306 RESOLVED FIXED 2023-12-10 23:25:33 UTC
#1990783: [radeon] Distorted mouse pointer under Wayland in Kubuntu 22.10 459679 RESOLVED DUPLICATE 2023-12-10 11:53:46 UTC
#1983245: Can't change user password on a "System Settings" (polkit dialog doesn't appear) 459430 RESOLVED DUPLICATE 2023-12-10 17:57:46 UTC
#1983245: Can't change user password on a "System Settings" (polkit dialog doesn't appear) 459309 RESOLVED FIXED 2023-12-10 23:25:35 UTC
#1502556: major memory leak on plasmashell 342374 RESOLVED UPSTREAM 2023-12-10 03:34:49 UTC
#1502556: major memory leak on plasmashell 357800 RESOLVED FIXED 2023-12-10 00:38:59 UTC
#1502556: major memory leak on plasmashell 348385 CLOSED FIXED 2023-12-10 00:38:56 UTC
#1502556: major memory leak on plasmashell 345141 RESOLVED WORKSFORME 2023-12-10 03:34:49 UTC
#1502556: major memory leak on plasmashell 352854 RESOLVED FIXED 2023-12-10 10:37:21 UTC
#1502556: major memory leak on plasmashell 346668 RESOLVED DUPLICATE 2023-12-10 11:53:26 UTC
#1502556: major memory leak on plasmashell 314919 RESOLVED FIXED 2023-12-10 16:48:58 UTC
#1988484: Holding down volume keys sometimes crashes xorg 454683 RESOLVED UPSTREAM 2023-12-10 17:57:42 UTC
#1983307: [SRU] Can't load addons list in a non-English locale (already fixed upstream) 451165 RESOLVED FIXED 2023-12-10 17:57:42 UTC
#1982775: digikam FTBFS against libavcodec59 448681 UNCONFIRMED 2023-12-10 17:57:42 UTC
#69299: [kmail] Allow External Resources From <site> 63780 RESOLVED FIXED 2023-12-10 10:37:37 UTC
#1982775: digikam FTBFS against libavcodec59 457121 RESOLVED DOWNSTREAM 2023-12-10 10:37:33 UTC
#1979194: kmail is unresponsive (100% cpu) when editing new response, trying to access online resources 334469 CONFIRMED 2023-12-10 19:11:12 UTC
#1965439: [SRU] kdesu fails to authenticate with sudo from Jammy 452532 RESOLVED FIXED 2023-12-10 19:11:29 UTC
#1961447: Cannot unlock screen without mouse click 439604 RESOLVED UNMAINTAINED 2023-12-10 03:34:59 UTC
#1961447: Cannot unlock screen without mouse click 449857 RESOLVED WORKSFORME 2023-12-10 17:57:42 UTC
#1967444: search results not sorted by relevance 452134 UNCONFIRMED 2023-12-10 17:57:42 UTC
#417819: Rebuilding thumbnails in digiKam is inefficient on multicore systems 289204 RESOLVED FIXED 2023-12-10 23:24:55 UTC
#1953677: Wrong folder icons when using dark theme 445518 RESOLVED FIXED 2023-12-10 00:39:08 UTC
#1952564: notify-send -t option not using correct time 446637 RESOLVED DUPLICATE 2023-12-10 17:57:42 UTC
#1577117: unknown file type error while saving 444998 RESOLVED FIXED 2023-12-10 23:25:33 UTC
#1945030: plasma-discover "cannot refresh cache whilst offline" 412834 RESOLVED UPSTREAM 2023-12-10 23:25:29 UTC
#1922389: Kubuntu 21.04 Installer window too narrow in VirtualBox 407058 RESOLVED FIXED 2023-12-10 00:39:03 UTC
#1943366: mupdf fails to open a PDF file with UserUnit definition (very large page size) 442280 UNCONFIRMED 2023-12-10 19:11:29 UTC
#1939377: kscreen does not return to original resolution after "Switch to laptop screen" 441977 RESOLVED WORKSFORME 2023-12-10 17:57:42 UTC
#1941752: Regression: exiv2 0.27.3-3ubuntu1.5 makes Gwenview crash when opening images exported by darktable 441121 RESOLVED FIXED 2023-12-10 11:53:42 UTC
#1322968: Changing country leads to invalid locale 441468 RESOLVED DUPLICATE 2023-12-10 19:11:29 UTC
#1901582: 'Switch user' not available in application launcher after upgrade to 20.10 435389 RESOLVED UPSTREAM 2023-12-10 23:25:33 UTC
#1879923: Update Scan Data Over Internet fails 436371 RESOLVED FIXED 2023-12-10 19:11:29 UTC
#1938894: [SRU] tracking bug for combined plasma LTS 5.18.6 & 5.18.7 & 5.18.8 bugfix updates for Focal 435233 RESOLVED FIXED 2023-12-10 00:39:07 UTC
#1931026: Some buttons in Pinta are not visible when the KDE "Breeze Dark" theme is used 438182 RESOLVED DUPLICATE 2023-12-10 19:11:29 UTC
#1929378: [SRU] default network should be switched to irc.libera.chat 437589 RESOLVED FIXED 2023-12-10 17:57:42 UTC
#1853271: [21.10 FEAT] Valgrind support for new s390 hardware 432387 RESOLVED FIXED 2023-12-10 11:53:42 UTC
#1922966: Missing SVG skin icons with libKF5IconThemes5 5.80 434451 RESOLVED FIXED 2023-12-10 10:37:30 UTC
#1901582: 'Switch user' not available in application launcher after upgrade to 20.10 427673 RESOLVED DUPLICATE 2023-12-10 04:38:39 UTC
#1872833: Duplicate Breeze themes in SDDM configuration 436250 RESOLVED DOWNSTREAM 2023-12-10 16:49:23 UTC
#1922438: Firefox is repainting only on re-focusing in Kubuntu 21.04 Wayland session 428499 RESOLVED FIXED 2023-12-10 03:34:59 UTC
#1396367: Kdeconnectd uses 100% 433293 RESOLVED FIXED 2023-12-10 23:25:33 UTC
#136348: "Report bug" button disappears if images disabled [Konqueror] 154303 RESOLVED DUPLICATE 2023-12-10 11:52:49 UTC
#1848211: [SRU] valgrind fails to use debug symbols from glib/gtk 427969 RESOLVED FIXED 2023-12-10 23:25:33 UTC
175 of 8727 results